createdAt,value
2023-03-26T00:00:40.924Z,9.16
2023-03-26T00:05:45.860Z,8.99
2023-03-26T00:10:48.792Z,9.00
2023-03-26T00:15:53.138Z,9.02
2023-03-26T00:20:56.387Z,8.96
2023-03-26T00:25:58.955Z,9.03
2023-03-26T00:31:04.107Z,9.06
2023-03-26T00:36:11.115Z,8.98
2023-03-26T00:41:25.114Z,8.89
2023-03-26T00:46:29.926Z,8.68
2023-03-26T00:51:34.165Z,8.65
2023-03-26T00:56:37.138Z,8.69
2023-03-26T01:01:40.185Z,8.71
2023-03-26T01:06:45.429Z,8.75
2023-03-26T01:11:49.892Z,8.69
2023-03-26T01:16:55.317Z,8.76
2023-03-26T01:21:59.170Z,8.71
2023-03-26T01:27:20.068Z,8.82
2023-03-26T01:32:28.154Z,8.79
2023-03-26T01:37:38.983Z,8.84
2023-03-26T01:42:58.720Z,8.75
2023-03-26T01:48:02.277Z,8.83
2023-03-26T01:53:05.937Z,8.72
2023-03-26T01:58:24.736Z,8.64
2023-03-26T02:03:34.772Z,8.69
2023-03-26T02:08:46.827Z,8.43
2023-03-26T02:13:50.834Z,8.36
2023-03-26T02:18:55.845Z,8.29
2023-03-26T02:24:03.507Z,8.23
2023-03-26T02:29:10.218Z,8.29
2023-03-26T02:34:16.385Z,8.20
2023-03-26T02:39:26.516Z,8.21
2023-03-26T02:44:40.289Z,8.12
2023-03-26T02:49:54.636Z,8.10
2023-03-26T02:55:09.622Z,8.10
2023-03-26T03:00:15.403Z,8.10
2023-03-26T03:05:21.184Z,8.11
2023-03-26T03:10:32.803Z,8.13
2023-03-26T03:15:49.017Z,8.19
2023-03-26T03:20:51.761Z,8.18
2023-03-26T03:25:57.512Z,8.20
2023-03-26T03:31:00.165Z,8.24
2023-03-26T03:36:20.674Z,8.24
2023-03-26T03:41:27.148Z,8.30
2023-03-26T03:46:29.816Z,8.27
2023-03-26T03:51:32.491Z,8.22
2023-03-26T03:56:39.207Z,8.27
2023-03-26T04:01:59.701Z,8.32
2023-03-26T04:07:15.713Z,8.30
2023-03-26T04:12:38.220Z,8.34
2023-03-26T04:17:42.914Z,8.31
2023-03-26T04:22:50.570Z,8.36
2023-03-26T04:27:58.593Z,8.41
2023-03-26T04:33:25.149Z,8.40
2023-03-26T04:38:38.252Z,8.53
2023-03-26T04:43:47.695Z,8.56
2023-03-26T04:48:54.792Z,8.65
2023-03-26T04:54:00.123Z,8.73
2023-03-26T04:59:08.246Z,8.81
2023-03-26T05:04:15.746Z,8.74
2023-03-26T05:09:19.684Z,8.68
2023-03-26T05:14:46.062Z,8.66
2023-03-26T05:19:54.681Z,8.71
2023-03-26T05:24:58.005Z,8.76
2023-03-26T05:30:05.018Z,8.75
2023-03-26T05:35:20.062Z,8.83
2023-03-26T05:40:22.975Z,8.88
2023-03-26T05:45:36.613Z,8.85
2023-03-26T05:51:02.183Z,8.86
2023-03-26T05:56:07.657Z,8.82
2023-03-26T06:01:29.494Z,9.12
2023-03-26T06:06:52.902Z,9.49
2023-03-26T06:11:56.131Z,9.48
2023-03-26T06:16:59.149Z,9.27
2023-03-26T06:22:01.756Z,9.19
2023-03-26T06:27:19.618Z,9.38
2023-03-26T06:32:40.598Z,9.38
2023-03-26T06:37:50.817Z,9.09
2023-03-26T06:43:08.805Z,9.27
2023-03-26T06:48:22.373Z,9.24
2023-03-26T06:53:43.416Z,9.05
2023-03-26T06:59:04.758Z,9.04
2023-03-26T07:04:26.153Z,9.03
2023-03-26T07:09:48.342Z,9.08
2023-03-26T07:15:24.096Z,9.29
2023-03-26T07:20:46.611Z,9.41
2023-03-26T07:25:50.117Z,9.31
2023-03-26T07:31:36.688Z,9.30
2023-03-26T07:37:14.991Z,9.15
2023-03-26T07:42:58.986Z,9.40
2023-03-26T07:48:25.716Z,9.12
2023-03-26T07:53:43.606Z,9.23
2023-03-26T07:59:07.334Z,9.06
2023-03-26T08:04:49.861Z,9.06
2023-03-26T08:10:29.663Z,9.05
2023-03-26T08:16:00.695Z,8.58
2023-03-26T08:21:17.440Z,8.68
2023-03-26T08:27:03.466Z,9.08
2023-03-26T08:32:14.025Z,9.13
2023-03-26T08:37:16.610Z,8.94
2023-03-26T08:42:22.169Z,9.18
2023-03-26T08:48:03.916Z,9.54
2023-03-26T08:53:15.562Z,9.07
2023-03-26T08:58:21.574Z,9.26
2023-03-26T09:03:54.819Z,9.19
2023-03-26T09:09:34.811Z,10.17
2023-03-26T09:15:08.754Z,11.71
2023-03-26T09:20:45.660Z,10.27
2023-03-26T09:25:54.435Z,11.46
2023-03-26T09:31:35.064Z,11.11
2023-03-26T09:36:57.608Z,12.06
2023-03-26T09:42:23.726Z,15.72
2023-03-26T09:48:06.109Z,15.80
2023-03-26T09:53:21.107Z,14.37
2023-03-26T09:58:53.801Z,14.41
2023-03-26T10:04:24.011Z,14.72
2023-03-26T10:10:00.547Z,14.00
2023-03-26T10:15:23.966Z,14.14
2023-03-26T10:20:38.412Z,14.15
2023-03-26T10:25:59.829Z,15.17
2023-03-26T10:31:14.379Z,16.38
2023-03-26T10:36:27.013Z,17.14
2023-03-26T10:42:02.593Z,18.13
2023-03-26T10:47:40.554Z,18.53
2023-03-26T10:53:11.363Z,19.59
2023-03-26T10:58:24.488Z,22.07
2023-03-26T11:03:45.980Z,19.19
2023-03-26T11:09:03.832Z,18.17
2023-03-26T11:14:24.442Z,22.26
2023-03-26T11:19:45.220Z,22.08
2023-03-26T11:24:48.003Z,23.35
2023-03-26T11:30:03.025Z,22.08
2023-03-26T11:35:39.388Z,22.77
2023-03-26T11:40:51.096Z,24.58
2023-03-26T11:46:20.326Z,27.93
2023-03-26T11:51:36.952Z,26.88
2023-03-26T11:57:07.172Z,24.57
2023-03-26T12:02:12.977Z,25.19
2023-03-26T12:07:17.448Z,24.50
2023-03-26T12:12:21.835Z,24.14
2023-03-26T12:17:31.284Z,22.94
2023-03-26T12:22:37.598Z,22.03
2023-03-26T12:27:49.816Z,21.61
2023-03-26T12:32:57.177Z,22.55
2023-03-26T12:38:38.363Z,18.99
2023-03-26T12:44:53.000Z,18.07
2023-03-26T12:49:16.952Z,19.67
2023-03-26T12:54:53.886Z,21.63
2023-03-26T13:00:21.621Z,23.32
2023-03-26T13:05:46.006Z,24.58
2023-03-26T13:11:10.364Z,24.42
2023-03-26T13:16:50.817Z,23.25
2023-03-26T13:22:03.426Z,20.99
2023-03-26T13:27:26.607Z,19.56
2023-03-26T13:33:06.225Z,18.66
2023-03-26T13:38:18.600Z,17.66
2023-03-26T13:43:27.246Z,16.83
2023-03-26T13:48:54.611Z,16.64
2023-03-26T13:54:07.858Z,17.22
2023-03-26T13:59:21.925Z,17.61
2023-03-26T14:04:46.652Z,17.63
2023-03-26T14:09:55.463Z,17.78
2023-03-26T14:15:02.933Z,17.69
2023-03-26T14:20:08.358Z,17.17
2023-03-26T14:25:51.742Z,14.94
2023-03-26T14:31:13.528Z,13.67
2023-03-26T14:36:43.480Z,12.88
2023-03-26T14:41:56.701Z,12.15
2023-03-26T14:47:17.594Z,11.82
2023-03-26T14:52:51.805Z,11.99
2023-03-26T14:58:22.301Z,12.54
2023-03-26T15:04:08.193Z,12.74
2023-03-26T15:09:42.990Z,12.68
2023-03-26T15:15:07.306Z,12.50
2023-03-26T15:20:45.983Z,12.38
2023-03-26T15:26:25.720Z,12.59
2023-03-26T15:31:48.780Z,12.09
2023-03-26T15:37:19.093Z,11.11
2023-03-26T15:42:53.688Z,10.74
2023-03-26T15:48:11.951Z,10.99
2023-03-26T15:53:26.318Z,10.48
2023-03-26T15:58:37.008Z,10.19
2023-03-26T16:04:02.336Z,10.15
2023-03-26T16:09:10.616Z,10.00
2023-03-26T16:14:24.926Z,9.86
2023-03-26T16:19:41.221Z,9.82
2023-03-26T16:25:27.135Z,9.64
2023-03-26T16:30:33.008Z,9.31
2023-03-26T16:35:42.232Z,9.29
2023-03-26T16:41:01.292Z,9.27
2023-03-26T16:46:20.824Z,9.48
2023-03-26T16:52:01.064Z,9.64
2023-03-26T16:57:25.060Z,9.30
2023-03-26T17:02:37.074Z,9.38
2023-03-26T17:07:47.355Z,9.30
2023-03-26T17:12:54.449Z,9.07
2023-03-26T17:18:21.865Z,9.27
2023-03-26T17:23:39.068Z,9.18
2023-03-26T17:29:24.290Z,9.24
2023-03-26T17:34:39.150Z,9.30
2023-03-26T17:39:43.602Z,9.33
2023-03-26T17:44:47.798Z,9.24
2023-03-26T17:50:12.511Z,9.17
2023-03-26T17:55:22.032Z,9.25
2023-03-26T18:00:45.259Z,9.11
2023-03-26T18:05:49.458Z,9.19
2023-03-26T18:11:19.974Z,9.23
2023-03-26T18:16:42.717Z,8.98
2023-03-26T18:21:59.549Z,9.15
2023-03-26T18:27:13.076Z,9.07
2023-03-26T18:32:22.854Z,8.84
2023-03-26T18:37:28.536Z,8.76
2023-03-26T18:42:33.109Z,8.82
2023-03-26T18:47:38.335Z,8.65
2023-03-26T18:52:42.214Z,8.83
2023-03-26T18:57:45.046Z,8.66
2023-03-26T19:02:51.508Z,8.85
2023-03-26T19:07:55.338Z,8.60
2023-03-26T19:13:00.828Z,8.69
2023-03-26T19:18:07.628Z,8.80
2023-03-26T19:23:15.598Z,8.88
2023-03-26T19:28:24.967Z,9.06
2023-03-26T19:33:35.075Z,8.97
2023-03-26T19:38:49.710Z,8.70
2023-03-26T19:43:55.828Z,8.55
2023-03-26T19:48:59.195Z,8.31
2023-03-26T19:54:04.053Z,8.24
2023-03-26T19:59:06.645Z,8.12
2023-03-26T20:04:13.749Z,7.91
2023-03-26T20:09:16.866Z,8.23
2023-03-26T20:14:26.156Z,8.41
2023-03-26T20:19:29.839Z,8.06
2023-03-26T20:24:33.889Z,8.13
2023-03-26T20:29:36.913Z,8.25
2023-03-26T20:34:40.148Z,8.12
2023-03-26T20:39:42.915Z,8.13
2023-03-26T20:44:45.612Z,7.98
2023-03-26T20:49:48.362Z,8.01
2023-03-26T20:54:52.074Z,7.84
2023-03-26T20:59:55.801Z,7.74
2023-03-26T21:04:58.406Z,7.57
2023-03-26T21:10:03.223Z,7.56
2023-03-26T21:15:13.448Z,7.58
2023-03-26T21:20:20.990Z,7.54
2023-03-26T21:25:43.391Z,7.51
2023-03-26T21:30:47.309Z,7.78
2023-03-26T21:35:52.002Z,7.82
2023-03-26T21:41:03.569Z,7.70
2023-03-26T21:46:06.889Z,7.58
2023-03-26T21:51:14.850Z,7.84
2023-03-26T21:56:46.203Z,7.89
2023-03-26T22:02:02.762Z,8.17
2023-03-26T22:07:13.968Z,8.32
2023-03-26T22:12:17.167Z,8.39
2023-03-26T22:17:20.501Z,8.22
2023-03-26T22:22:26.244Z,8.48
2023-03-26T22:27:28.832Z,8.37
2023-03-26T22:32:32.650Z,8.30
2023-03-26T22:37:37.299Z,8.42
2023-03-26T22:42:41.129Z,8.06
2023-03-26T22:47:45.077Z,7.39
2023-03-26T22:52:47.655Z,6.96
2023-03-26T22:57:53.364Z,7.04
2023-03-26T23:03:00.572Z,7.31
2023-03-26T23:08:03.834Z,7.24
2023-03-26T23:13:06.294Z,7.34
2023-03-26T23:18:08.818Z,7.48
2023-03-26T23:23:11.313Z,7.58
2023-03-26T23:28:14.711Z,7.55
2023-03-26T23:33:17.318Z,7.48
2023-03-26T23:38:22.445Z,7.77
2023-03-26T23:43:26.285Z,8.13
2023-03-26T23:48:29.845Z,8.50
2023-03-26T23:53:32.921Z,8.75
2023-03-26T23:58:36.131Z,8.88
